createdAt,value
2023-07-18T00:00:30.922Z,96891.75
2023-07-18T00:01:03.554Z,96890.16
2023-07-18T00:01:36.502Z,96899.78
2023-07-18T00:02:08.857Z,96890.13
2023-07-18T00:02:41.199Z,96903.25
2023-07-18T00:03:16.803Z,96900.97
2023-07-18T00:03:49.201Z,96894.41
2023-07-18T00:04:21.138Z,96893.63
2023-07-18T00:04:53.633Z,96904.06
2023-07-18T00:05:25.708Z,96895.97
2023-07-18T00:05:57.628Z,96902.53
2023-07-18T00:06:29.464Z,96894.06
2023-07-18T00:07:01.349Z,96890.56
2023-07-18T00:07:33.361Z,96894.84
2023-07-18T00:08:06.023Z,96897.19
2023-07-18T00:08:38.085Z,96899.50
2023-07-18T00:09:10.058Z,96903.75
2023-07-18T00:09:42.066Z,96900.31
2023-07-18T00:10:14.681Z,96904.09
2023-07-18T00:10:47.349Z,96906.06
2023-07-18T00:11:19.510Z,96901.06
2023-07-18T00:11:51.596Z,96895.69
2023-07-18T00:12:24.295Z,96900.34
2023-07-18T00:12:56.588Z,96903.06
2023-07-18T00:13:28.508Z,96896.81
2023-07-18T00:14:00.967Z,96897.19
2023-07-18T00:14:33.140Z,96899.88
2023-07-18T00:15:06.345Z,96897.19
2023-07-18T00:15:38.738Z,96901.06
2023-07-18T00:16:11.025Z,96897.25
2023-07-18T00:16:45.519Z,96903.75
2023-07-18T00:17:17.439Z,96899.56
2023-07-18T00:17:50.219Z,96906.59
2023-07-18T00:18:22.779Z,96905.06
2023-07-18T00:18:54.887Z,96907.00
2023-07-18T00:19:28.606Z,96910.50
2023-07-18T00:20:05.457Z,96905.88
2023-07-18T00:20:37.343Z,96906.59
2023-07-18T00:21:09.361Z,96906.25
2023-07-18T00:21:41.929Z,96897.00
2023-07-18T00:22:13.879Z,96899.69
2023-07-18T00:22:50.818Z,96898.13
2023-07-18T00:23:23.922Z,96906.63
2023-07-18T00:23:56.476Z,96898.94
2023-07-18T00:24:30.027Z,96898.06
2023-07-18T00:25:02.489Z,96891.94
2023-07-18T00:25:34.548Z,96900.06
2023-07-18T00:26:06.642Z,96893.88
2023-07-18T00:26:39.197Z,96889.28
2023-07-18T00:27:11.317Z,96892.00
2023-07-18T00:27:44.543Z,96888.88
2023-07-18T00:28:17.671Z,96891.19
2023-07-18T00:28:54.685Z,96897.34
2023-07-18T00:29:27.390Z,96898.88
2023-07-18T00:29:59.476Z,96898.13
2023-07-18T00:30:31.727Z,96900.03
2023-07-18T00:31:04.522Z,96897.28
2023-07-18T00:31:37.508Z,96891.88
2023-07-18T00:32:12.052Z,96889.50
2023-07-18T00:32:46.024Z,96898.34
2023-07-18T00:33:18.032Z,96901.06
2023-07-18T00:33:50.058Z,96899.88
2023-07-18T00:34:21.975Z,96902.19
2023-07-18T00:34:57.680Z,96897.59
2023-07-18T00:35:29.777Z,96897.53
2023-07-18T00:36:01.935Z,96901.03
2023-07-18T00:36:34.076Z,96892.91
2023-07-18T00:37:06.627Z,96898.69
2023-07-18T00:37:39.804Z,96898.69
2023-07-18T00:38:12.941Z,96899.06
2023-07-18T00:38:46.211Z,96901.38
2023-07-18T00:39:18.230Z,96897.53
2023-07-18T00:39:50.740Z,96902.91
2023-07-18T00:40:23.278Z,96898.66
2023-07-18T00:40:56.021Z,96899.81
2023-07-18T00:41:28.059Z,96899.81
2023-07-18T00:42:01.698Z,96902.09
2023-07-18T00:42:33.723Z,96890.53
2023-07-18T00:43:13.420Z,96898.19
2023-07-18T00:43:46.492Z,96898.94
2023-07-18T00:44:18.429Z,96895.44
2023-07-18T00:44:51.517Z,96896.97
2023-07-18T00:45:23.533Z,96900.75
2023-07-18T00:45:55.631Z,96898.06
2023-07-18T00:46:28.546Z,96899.13
2023-07-18T00:47:02.180Z,96902.22
2023-07-18T00:47:41.623Z,96906.44
2023-07-18T00:48:15.119Z,96909.75
2023-07-18T00:48:47.576Z,96910.56
2023-07-18T00:49:19.741Z,96904.38
2023-07-18T00:49:52.234Z,96911.75
2023-07-18T00:50:25.635Z,96909.75
2023-07-18T00:50:57.792Z,96903.56
2023-07-18T00:51:30.957Z,96904.28
2023-07-18T00:52:05.774Z,96901.25
2023-07-18T00:52:45.022Z,96900.09
2023-07-18T00:53:17.184Z,96905.50
2023-07-18T00:53:49.297Z,96901.25
2023-07-18T00:54:22.167Z,96897.75
2023-07-18T00:54:54.389Z,96898.84
2023-07-18T00:55:26.730Z,96897.59
2023-07-18T00:56:00.557Z,96895.28
2023-07-18T00:56:32.785Z,96903.84
2023-07-18T00:57:06.515Z,96905.03
2023-07-18T00:57:40.825Z,96897.34
2023-07-18T00:58:13.571Z,96898.06
2023-07-18T00:58:46.201Z,96897.72
2023-07-18T00:59:18.793Z,96897.31
2023-07-18T00:59:51.539Z,96898.06
2023-07-18T01:00:24.308Z,96898.03
2023-07-18T01:00:56.457Z,96896.53
2023-07-18T01:01:28.562Z,96901.56
2023-07-18T01:02:04.095Z,96897.25
2023-07-18T01:02:38.173Z,96898.78
2023-07-18T01:03:11.261Z,96894.53
2023-07-18T01:03:43.530Z,96894.97
2023-07-18T01:04:16.125Z,96898.78
2023-07-18T01:04:48.682Z,96892.59
2023-07-18T01:05:20.839Z,96893.69
2023-07-18T01:05:54.539Z,96894.16
2023-07-18T01:06:26.684Z,96893.41
2023-07-18T01:07:01.305Z,96887.59
2023-07-18T01:07:33.894Z,96901.13
2023-07-18T01:08:06.265Z,96898.50
2023-07-18T01:08:40.631Z,96886.53
2023-07-18T01:09:13.059Z,96886.53
2023-07-18T01:09:46.049Z,96890.78
2023-07-18T01:10:25.781Z,96890.34
2023-07-18T01:10:58.084Z,96888.00
2023-07-18T01:11:29.988Z,96888.78
2023-07-18T01:12:01.885Z,96894.59
2023-07-18T01:12:33.865Z,96886.13
2023-07-18T01:13:05.882Z,96890.34
2023-07-18T01:13:37.987Z,96887.59
2023-07-18T01:14:10.953Z,96892.28
2023-07-18T01:14:43.034Z,96894.53
2023-07-18T01:15:15.181Z,96891.84
2023-07-18T01:15:48.178Z,96883.75
2023-07-18T01:16:20.384Z,96889.56
2023-07-18T01:16:54.469Z,96888.78
2023-07-18T01:17:26.608Z,96890.34
2023-07-18T01:17:59.115Z,96892.66
2023-07-18T01:18:31.185Z,96887.28
2023-07-18T01:19:03.319Z,96886.50
2023-07-18T01:19:36.871Z,96883.03
2023-07-18T01:20:13.208Z,96883.38
2023-07-18T01:20:47.009Z,96883.75
2023-07-18T01:21:20.639Z,96881.84
2023-07-18T01:21:52.909Z,96883.25
2023-07-18T01:22:24.985Z,96890.97
2023-07-18T01:23:00.869Z,96885.91
2023-07-18T01:23:32.869Z,96888.72
2023-07-18T01:24:05.211Z,96886.03
2023-07-18T01:24:37.125Z,96894.59
2023-07-18T01:25:13.060Z,96884.94
2023-07-18T01:25:45.042Z,96884.94
2023-07-18T01:26:17.134Z,96881.84
2023-07-18T01:26:49.112Z,96884.56
2023-07-18T01:27:21.024Z,96882.66
2023-07-18T01:27:55.576Z,96877.63
2023-07-18T01:28:27.624Z,96878.41
2023-07-18T01:29:00.526Z,96878.81
2023-07-18T01:29:34.105Z,96873.41
2023-07-18T01:30:07.201Z,96875.31
2023-07-18T01:30:41.176Z,96879.16
2023-07-18T01:31:13.218Z,96874.19
2023-07-18T01:31:46.197Z,96876.47
2023-07-18T01:32:18.215Z,96880.72
2023-07-18T01:32:51.586Z,96873.31
2023-07-18T01:33:23.709Z,96878.78
2023-07-18T01:33:55.612Z,96874.06
2023-07-18T01:34:27.588Z,96883.31
2023-07-18T01:35:05.145Z,96880.63
2023-07-18T01:35:37.189Z,96879.38
2023-07-18T01:36:09.290Z,96875.41
2023-07-18T01:36:42.293Z,96876.19
2023-07-18T01:37:16.384Z,96880.88
2023-07-18T01:37:49.586Z,96879.75
2023-07-18T01:38:21.729Z,96878.16
2023-07-18T01:38:53.789Z,96878.97
2023-07-18T01:39:27.523Z,96881.16
2023-07-18T01:40:00.706Z,96871.53
2023-07-18T01:40:32.679Z,96876.13
2023-07-18T01:41:04.729Z,96875.38
2023-07-18T01:41:37.084Z,96873.03
2023-07-18T01:42:09.307Z,96870.34
2023-07-18T01:42:43.779Z,96874.59
2023-07-18T01:43:15.687Z,96865.28
2023-07-18T01:43:47.708Z,96864.53
2023-07-18T01:44:20.484Z,96866.06
2023-07-18T01:44:52.717Z,96861.41
2023-07-18T01:45:26.716Z,96861.38
2023-07-18T01:46:00.211Z,96858.63
2023-07-18T01:46:34.416Z,96861.34
2023-07-18T01:47:06.639Z,96856.66
2023-07-18T01:47:39.627Z,96859.72
2023-07-18T01:48:11.786Z,96863.94
2023-07-18T01:48:44.789Z,96860.81
2023-07-18T01:49:16.796Z,96858.88
2023-07-18T01:49:48.844Z,96852.31
2023-07-18T01:50:20.943Z,96857.34
2023-07-18T01:50:54.181Z,96861.97
2023-07-18T01:51:29.679Z,96859.63
2023-07-18T01:52:02.014Z,96868.88
2023-07-18T01:52:35.669Z,96866.53
2023-07-18T01:53:07.812Z,96861.81
2023-07-18T01:53:39.714Z,96863.75
2023-07-18T01:54:12.432Z,96861.00
2023-07-18T01:54:44.930Z,96857.81
2023-07-18T01:55:17.118Z,96851.34
2023-07-18T01:55:49.176Z,96861.72
2023-07-18T01:56:21.168Z,96854.69
2023-07-18T01:56:54.063Z,96856.50
2023-07-18T01:57:29.642Z,96863.09
2023-07-18T01:58:01.661Z,96859.97
2023-07-18T01:58:33.708Z,96863.94
2023-07-18T01:59:06.504Z,96868.88
2023-07-18T01:59:38.474Z,96862.97
2023-07-18T02:00:12.712Z,96869.81
2023-07-18T02:00:48.190Z,96860.09
2023-07-18T02:01:20.963Z,96869.69
2023-07-18T02:01:53.350Z,96863.91
2023-07-18T02:02:26.349Z,96866.59
2023-07-18T02:02:58.973Z,96868.47
2023-07-18T02:03:32.953Z,96876.84
2023-07-18T02:04:05.102Z,96876.00
2023-07-18T02:04:37.016Z,96867.53
2023-07-18T02:05:09.903Z,96877.16
2023-07-18T02:05:41.792Z,96878.00
2023-07-18T02:06:13.785Z,96876.53
2023-07-18T02:06:45.772Z,96868.09
2023-07-18T02:07:17.698Z,96879.69
2023-07-18T02:07:50.213Z,96871.59
2023-07-18T02:08:22.228Z,96873.13
2023-07-18T02:08:54.187Z,96871.16
2023-07-18T02:09:26.696Z,96875.34
2023-07-18T02:10:01.160Z,96875.72
2023-07-18T02:10:33.419Z,96879.44
2023-07-18T02:11:07.194Z,96879.06
2023-07-18T02:11:39.188Z,96882.56
2023-07-18T02:12:11.342Z,96875.59
2023-07-18T02:12:43.435Z,96882.16
2023-07-18T02:13:15.389Z,96884.09
2023-07-18T02:13:47.205Z,96886.41
2023-07-18T02:14:21.274Z,96888.22
2023-07-18T02:14:53.449Z,96890.22
2023-07-18T02:15:25.412Z,96883.69
2023-07-18T02:15:57.448Z,96887.88
2023-07-18T02:16:29.417Z,96898.16
2023-07-18T02:17:01.402Z,96892.41
2023-07-18T02:17:34.592Z,96891.69
2023-07-18T02:18:06.635Z,96887.88
2023-07-18T02:18:38.986Z,96894.03
2023-07-18T02:19:10.777Z,96892.41
2023-07-18T02:19:42.624Z,96887.88
2023-07-18T02:20:16.493Z,96888.22
2023-07-18T02:20:48.460Z,96893.97
2023-07-18T02:21:20.577Z,96897.88
2023-07-18T02:21:52.765Z,96888.22
2023-07-18T02:22:25.415Z,96896.38
2023-07-18T02:22:57.621Z,96894.47
2023-07-18T02:23:29.764Z,96889.84
2023-07-18T02:24:02.041Z,96890.63
2023-07-18T02:24:34.933Z,96895.63
2023-07-18T02:25:10.106Z,96894.88
2023-07-18T02:25:42.015Z,96899.56
2023-07-18T02:26:15.348Z,96892.63
2023-07-18T02:26:47.352Z,96888.78
2023-07-18T02:27:20.865Z,96893.81
2023-07-18T02:27:54.728Z,96897.28
2023-07-18T02:28:26.741Z,96888.44
2023-07-18T02:28:58.699Z,96898.84
2023-07-18T02:29:30.773Z,96892.72
2023-07-18T02:30:03.448Z,96885.78
2023-07-18T02:30:39.424Z,96898.78
2023-07-18T02:31:11.462Z,96894.53
2023-07-18T02:31:44.854Z,96894.59
2023-07-18T02:32:18.177Z,96898.84
2023-07-18T02:32:50.653Z,96899.22
2023-07-18T02:33:22.575Z,96891.13
2023-07-18T02:33:54.729Z,96897.28
2023-07-18T02:34:27.152Z,96896.88
2023-07-18T02:34:59.326Z,96899.56
2023-07-18T02:35:31.241Z,96894.97
2023-07-18T02:36:07.532Z,96896.09
2023-07-18T02:36:39.460Z,96888.34
2023-07-18T02:37:11.585Z,96891.84
2023-07-18T02:37:43.489Z,96899.50
2023-07-18T02:38:15.357Z,96898.72
2023-07-18T02:38:47.235Z,96898.66
2023-07-18T02:39:19.231Z,96902.84
2023-07-18T02:39:51.963Z,96893.91
2023-07-18T02:40:23.958Z,96892.31
2023-07-18T02:40:55.946Z,96897.69
2023-07-18T02:41:28.561Z,96900.31
2023-07-18T02:42:00.583Z,96897.63
2023-07-18T02:42:34.985Z,96896.06
2023-07-18T02:43:07.471Z,96892.97
2023-07-18T02:43:39.461Z,96896.84
2023-07-18T02:44:12.515Z,96904.50
2023-07-18T02:44:47.502Z,96901.41
2023-07-18T02:45:21.441Z,96900.16
2023-07-18T02:45:53.445Z,96904.75
2023-07-18T02:46:25.409Z,96906.66
2023-07-18T02:46:57.464Z,96901.09
2023-07-18T02:47:29.624Z,96903.78
2023-07-18T02:48:01.526Z,96906.53
2023-07-18T02:48:33.603Z,96907.28
2023-07-18T02:49:05.559Z,96907.72
2023-07-18T02:49:37.477Z,96902.69
2023-07-18T02:50:09.921Z,96902.28
2023-07-18T02:50:42.235Z,96903.78
2023-07-18T02:51:14.753Z,96912.50
2023-07-18T02:51:46.617Z,96905.19
2023-07-18T02:52:18.613Z,96908.59
2023-07-18T02:52:50.745Z,96911.00
2023-07-18T02:53:23.552Z,96907.59
2023-07-18T02:53:55.608Z,96911.47
2023-07-18T02:54:27.824Z,96914.25
2023-07-18T02:54:59.842Z,96903.13
2023-07-18T02:55:32.195Z,96908.53
2023-07-18T02:56:04.370Z,96909.28
2023-07-18T02:56:36.721Z,96901.91
2023-07-18T02:57:08.846Z,96903.03
2023-07-18T02:57:40.974Z,96906.88
2023-07-18T02:58:13.086Z,96899.22
2023-07-18T02:58:45.207Z,96900.34
2023-07-18T02:59:22.056Z,96905.97
2023-07-18T02:59:54.050Z,96904.78
2023-07-18T03:00:29.828Z,96902.50
2023-07-18T03:01:02.288Z,96912.44
2023-07-18T03:01:35.443Z,96912.34
2023-07-18T03:02:07.660Z,96909.53
2023-07-18T03:02:40.906Z,96908.75
2023-07-18T03:03:13.955Z,96908.34
2023-07-18T03:03:46.496Z,96915.69
2023-07-18T03:04:18.580Z,96915.28
2023-07-18T03:04:50.581Z,96911.72
2023-07-18T03:05:25.603Z,96910.59
2023-07-18T03:05:57.715Z,96912.88
2023-07-18T03:06:30.460Z,96915.97
2023-07-18T03:07:04.356Z,96910.47
2023-07-18T03:07:36.410Z,96910.97
2023-07-18T03:08:08.290Z,96914.44
2023-07-18T03:08:40.163Z,96919.75
2023-07-18T03:09:12.044Z,96915.78
2023-07-18T03:09:44.245Z,96913.09
2023-07-18T03:10:16.665Z,96914.31
2023-07-18T03:10:48.677Z,96914.94
2023-07-18T03:11:20.955Z,96916.50
2023-07-18T03:11:53.255Z,96918.03
2023-07-18T03:12:25.679Z,96921.94
2023-07-18T03:12:57.639Z,96908.81
2023-07-18T03:13:29.605Z,96911.16
2023-07-18T03:14:01.978Z,96906.41
2023-07-18T03:14:37.042Z,96916.50
2023-07-18T03:15:12.614Z,96921.09
2023-07-18T03:15:44.969Z,96913.28
2023-07-18T03:16:17.468Z,96911.31
2023-07-18T03:16:50.295Z,96916.34
2023-07-18T03:17:22.894Z,96908.69
2023-07-18T03:17:54.922Z,96915.97
2023-07-18T03:18:27.361Z,96915.63
2023-07-18T03:19:00.373Z,96920.59
2023-07-18T03:19:32.989Z,96914.06
2023-07-18T03:20:18.114Z,96920.16
2023-07-18T03:20:50.643Z,96920.09
2023-07-18T03:21:25.337Z,96915.41
2023-07-18T03:21:57.199Z,96916.19
2023-07-18T03:22:29.401Z,96924.22
2023-07-18T03:23:03.173Z,96928.50
2023-07-18T03:23:35.610Z,96930.06
2023-07-18T03:24:11.421Z,96927.75
2023-07-18T03:24:43.438Z,96917.06
2023-07-18T03:25:16.210Z,96925.47
2023-07-18T03:25:49.543Z,96916.59
2023-07-18T03:26:22.221Z,96922.44
2023-07-18T03:26:57.839Z,96927.81
2023-07-18T03:27:29.804Z,96927.38
2023-07-18T03:28:02.340Z,96921.94
2023-07-18T03:28:34.287Z,96923.06
2023-07-18T03:29:08.974Z,96926.84
2023-07-18T03:29:42.808Z,96929.00
2023-07-18T03:30:15.121Z,96926.91
2023-07-18T03:30:46.956Z,96925.78
2023-07-18T03:31:18.870Z,96929.69
2023-07-18T03:31:51.034Z,96926.38
2023-07-18T03:32:23.779Z,96930.22
2023-07-18T03:32:58.645Z,96934.38
2023-07-18T03:33:32.803Z,96933.25
2023-07-18T03:34:05.984Z,96926.84
2023-07-18T03:34:38.365Z,96928.38
2023-07-18T03:35:12.232Z,96924.13
2023-07-18T03:35:44.250Z,96934.81
2023-07-18T03:36:16.177Z,96943.31
2023-07-18T03:36:48.606Z,96934.13
2023-07-18T03:37:20.458Z,96929.00
2023-07-18T03:37:52.358Z,96937.50
2023-07-18T03:38:24.179Z,96937.50
2023-07-18T03:38:56.099Z,96937.50
2023-07-18T03:39:32.248Z,96932.97
2023-07-18T03:40:07.326Z,96936.09
2023-07-18T03:40:39.492Z,96939.84
2023-07-18T03:41:11.661Z,96938.22
2023-07-18T03:41:44.092Z,96939.06
2023-07-18T03:42:16.083Z,96936.38
2023-07-18T03:42:48.922Z,96932.63
2023-07-18T03:43:20.845Z,96938.34
2023-07-18T03:43:52.757Z,96938.44
2023-07-18T03:44:24.874Z,96938.53
2023-07-18T03:44:56.857Z,96938.59
2023-07-18T03:45:30.248Z,96940.84
2023-07-18T03:46:02.207Z,96947.81
2023-07-18T03:46:34.299Z,96945.53
2023-07-18T03:47:43.926Z,96937.97
2023-07-18T03:48:15.850Z,96931.03
2023-07-18T03:48:47.823Z,96936.47
2023-07-18T03:49:19.738Z,96934.97
2023-07-18T03:49:51.796Z,96928.47
2023-07-18T03:50:24.784Z,96930.44
2023-07-18T03:50:56.622Z,96932.78
2023-07-18T03:51:30.994Z,96924.28
2023-07-18T03:52:06.088Z,96928.03
2023-07-18T03:52:38.050Z,96927.19
2023-07-18T03:53:09.987Z,96931.09
2023-07-18T03:53:42.035Z,96937.22
2023-07-18T03:54:13.958Z,96931.16
2023-07-18T03:54:46.695Z,96933.56
2023-07-18T03:55:18.768Z,96934.25
2023-07-18T03:55:50.728Z,96933.50
2023-07-18T03:56:22.587Z,96934.75
2023-07-18T03:56:54.656Z,96928.25
2023-07-18T03:57:28.372Z,96934.81
2023-07-18T03:58:01.226Z,96934.47
2023-07-18T03:58:34.281Z,96936.81
2023-07-18T03:59:06.137Z,96930.59
2023-07-18T03:59:37.985Z,96933.28
2023-07-18T04:00:19.070Z,96937.09
2023-07-18T04:00:51.545Z,96931.31
2023-07-18T04:01:33.421Z,96932.00
2023-07-18T04:02:06.188Z,96925.94
2023-07-18T04:02:38.307Z,96929.81
2023-07-18T04:03:13.842Z,96929.03
2023-07-18T04:03:45.906Z,96919.31
2023-07-18T04:04:17.896Z,96917.06
2023-07-18T04:04:49.763Z,96924.44
2023-07-18T04:05:21.729Z,96927.13
2023-07-18T04:05:53.961Z,96923.72
2023-07-18T04:06:25.986Z,96922.84
2023-07-18T04:06:58.030Z,96916.34
2023-07-18T04:07:29.916Z,96924.84
2023-07-18T04:08:01.764Z,96919.13
2023-07-18T04:08:33.796Z,96917.47
2023-07-18T04:09:07.060Z,96923.72
2023-07-18T04:09:39.006Z,96922.16
2023-07-18T04:10:12.954Z,96919.13
2023-07-18T04:10:46.174Z,96921.88
2023-07-18T04:11:18.712Z,96923.78
2023-07-18T04:11:51.044Z,96914.19
2023-07-18T04:12:23.004Z,96918.09
2023-07-18T04:12:54.993Z,96924.28
2023-07-18T04:13:27.193Z,96921.94
2023-07-18T04:13:59.121Z,96920.44
2023-07-18T04:14:31.223Z,96919.28
2023-07-18T04:15:03.809Z,96920.16
2023-07-18T04:15:35.914Z,96919.38
2023-07-18T04:16:08.530Z,96918.31
2023-07-18T04:16:40.619Z,96919.50
2023-07-18T04:17:12.497Z,96916.41
2023-07-18T04:17:44.679Z,96916.09
2023-07-18T04:18:16.724Z,96916.09
2023-07-18T04:18:48.763Z,96913.41
2023-07-18T04:19:21.062Z,96908.78
2023-07-18T04:19:53.546Z,96912.78
2023-07-18T04:20:25.556Z,96911.56
2023-07-18T04:21:05.392Z,96909.56
2023-07-18T04:21:37.600Z,96913.72
2023-07-18T04:22:12.124Z,96910.44
2023-07-18T04:22:44.205Z,96907.22
2023-07-18T04:23:17.163Z,96910.38
2023-07-18T04:23:49.792Z,96908.97
2023-07-18T04:24:22.667Z,96901.34
2023-07-18T04:24:55.644Z,96900.75
2023-07-18T04:25:33.590Z,96896.06
2023-07-18T04:26:05.633Z,96906.13
2023-07-18T04:26:37.569Z,96905.88
2023-07-18T04:27:09.635Z,96893.59
2023-07-18T04:27:41.685Z,96905.66
2023-07-18T04:28:13.718Z,96898.78
2023-07-18T04:28:45.667Z,96897.41
2023-07-18T04:29:20.150Z,96898.25
2023-07-18T04:29:52.217Z,96890.28
2023-07-18T04:30:24.268Z,96895.63
2023-07-18T04:30:57.065Z,96898.31
2023-07-18T04:31:29.044Z,96893.28
2023-07-18T04:32:01.062Z,96894.88
2023-07-18T04:32:33.061Z,96896.31
2023-07-18T04:33:05.008Z,96901.59
2023-07-18T04:33:39.433Z,96900.16
2023-07-18T04:34:11.839Z,96893.34
2023-07-18T04:34:43.703Z,96897.28
2023-07-18T04:35:16.072Z,96893.47
2023-07-18T04:35:48.884Z,96890.88
2023-07-18T04:36:20.901Z,96893.50
2023-07-18T04:36:52.874Z,96896.22
2023-07-18T04:37:24.838Z,96898.34
2023-07-18T04:37:58.627Z,96897.94
2023-07-18T04:38:31.502Z,96894.41
2023-07-18T04:39:03.908Z,96899.75
2023-07-18T04:39:35.892Z,96895.28
2023-07-18T04:40:10.175Z,96891.09
2023-07-18T04:40:42.909Z,96891.53
2023-07-18T04:41:14.885Z,96891.22
2023-07-18T04:41:55.022Z,96894.97
2023-07-18T04:42:28.676Z,96893.53
2023-07-18T04:43:00.617Z,96893.06
2023-07-18T04:43:32.661Z,96897.88
2023-07-18T04:44:04.817Z,96891.91
2023-07-18T04:44:37.778Z,96885.97
2023-07-18T04:45:09.998Z,96884.44
2023-07-18T04:45:46.642Z,96887.63
2023-07-18T04:46:18.646Z,96879.97
2023-07-18T04:46:50.958Z,96881.81
2023-07-18T04:47:23.995Z,96883.22
2023-07-18T04:47:56.163Z,96879.59
2023-07-18T04:48:29.734Z,96883.41
2023-07-18T04:49:01.773Z,96883.19
2023-07-18T04:49:34.058Z,96885.00
2023-07-18T04:50:11.907Z,96884.19
2023-07-18T04:50:46.030Z,96875.69
2023-07-18T04:51:19.733Z,96874.25
2023-07-18T04:51:52.703Z,96875.88
2023-07-18T04:52:25.016Z,96874.25
2023-07-18T04:52:57.018Z,96871.13
2023-07-18T04:53:31.022Z,96865.69
2023-07-18T04:54:04.136Z,96873.53
2023-07-18T04:54:36.081Z,96868.03
2023-07-18T04:55:10.089Z,96878.81
2023-07-18T04:55:42.005Z,96869.44
2023-07-18T04:56:14.881Z,96870.84
2023-07-18T04:56:46.738Z,96871.88
2023-07-18T04:57:18.937Z,96862.88
2023-07-18T04:57:50.832Z,96865.81
2023-07-18T04:58:26.320Z,96864.53
2023-07-18T04:58:58.259Z,96863.44
2023-07-18T04:59:32.398Z,96865.09
2023-07-18T05:00:08.007Z,96865.81
2023-07-18T05:00:39.821Z,96871.78
2023-07-18T05:01:11.773Z,96865.91
2023-07-18T05:01:43.817Z,96862.13
2023-07-18T05:02:15.678Z,96862.94
2023-07-18T05:02:47.785Z,96852.44
2023-07-18T05:03:20.055Z,96861.50
2023-07-18T05:03:57.700Z,96864.41
2023-07-18T05:04:30.339Z,96861.31
2023-07-18T05:05:03.045Z,96861.09
2023-07-18T05:05:35.889Z,96857.97
2023-07-18T05:06:07.891Z,96855.25
2023-07-18T05:06:39.819Z,96847.50
2023-07-18T05:07:12.008Z,96851.19
2023-07-18T05:07:46.068Z,96853.56
2023-07-18T05:08:18.753Z,96853.50
2023-07-18T05:08:50.727Z,96851.13
2023-07-18T05:09:22.917Z,96851.09
2023-07-18T05:09:55.820Z,96854.34
2023-07-18T05:10:27.949Z,96853.34
2023-07-18T05:11:04.014Z,96858.88
2023-07-18T05:11:35.959Z,96854.13
2023-07-18T05:12:08.299Z,96853.00
2023-07-18T05:12:40.940Z,96842.28
2023-07-18T05:13:13.888Z,96851.22
2023-07-18T05:13:45.890Z,96849.03
2023-07-18T05:14:17.856Z,96850.66
2023-07-18T05:14:49.746Z,96842.47
2023-07-18T05:15:22.221Z,96843.75
2023-07-18T05:15:54.184Z,96844.06
2023-07-18T05:16:26.428Z,96840.53
2023-07-18T05:16:58.286Z,96844.50
2023-07-18T05:17:30.798Z,96840.25
2023-07-18T05:18:03.780Z,96838.81
2023-07-18T05:18:35.769Z,96840.75
2023-07-18T05:19:07.626Z,96841.53
2023-07-18T05:19:39.526Z,96835.63
2023-07-18T05:20:13.143Z,96843.38
2023-07-18T05:20:45.105Z,96842.38
2023-07-18T05:21:17.130Z,96837.25
2023-07-18T05:21:51.400Z,96839.50
2023-07-18T05:22:23.372Z,96837.13
2023-07-18T05:22:55.283Z,96840.34
2023-07-18T05:23:27.232Z,96837.63
2023-07-18T05:23:59.109Z,96843.06
2023-07-18T05:24:30.912Z,96843.09
2023-07-18T05:25:02.807Z,96844.72
2023-07-18T05:25:34.883Z,96842.78
2023-07-18T05:26:09.367Z,96837.03
2023-07-18T05:26:41.161Z,96838.56
2023-07-18T05:27:13.055Z,96842.88
2023-07-18T05:27:45.267Z,96840.09
2023-07-18T05:28:17.216Z,96838.13
2023-07-18T05:28:49.542Z,96838.91
2023-07-18T05:29:21.405Z,96841.22
2023-07-18T05:29:53.278Z,96835.84
2023-07-18T05:30:25.844Z,96837.78
2023-07-18T05:30:57.841Z,96832.75
2023-07-18T05:31:29.780Z,96834.63
2023-07-18T05:32:02.608Z,96838.94
2023-07-18T05:32:34.542Z,96829.28
2023-07-18T05:33:06.534Z,96829.28
2023-07-18T05:33:38.755Z,96826.97
2023-07-18T05:34:10.728Z,96829.69
2023-07-18T05:34:43.656Z,96822.31
2023-07-18T05:35:15.688Z,96826.19
2023-07-18T05:35:48.490Z,96819.19
2023-07-18T05:36:21.370Z,96828.50
2023-07-18T05:36:53.271Z,96818.81
2023-07-18T05:37:26.946Z,96819.59
2023-07-18T05:37:59.425Z,96823.84
2023-07-18T05:38:31.482Z,96827.34
2023-07-18T05:39:04.048Z,96820.00
2023-07-18T05:39:36.799Z,96825.03
2023-07-18T05:40:13.218Z,96822.28
2023-07-18T05:40:45.155Z,96822.28
2023-07-18T05:41:17.225Z,96822.66
2023-07-18T05:41:49.389Z,96822.31
2023-07-18T05:42:21.918Z,96827.28
2023-07-18T05:42:55.353Z,96821.06
2023-07-18T05:43:27.699Z,96814.31
2023-07-18T05:43:59.562Z,96816.59
2023-07-18T05:44:32.194Z,96815.50
2023-07-18T05:45:06.104Z,96815.25
2023-07-18T05:45:38.058Z,96812.94
2023-07-18T05:46:11.515Z,96819.13
2023-07-18T05:46:43.733Z,96814.75
2023-07-18T05:47:16.627Z,96816.72
2023-07-18T05:47:48.900Z,96815.19
2023-07-18T05:48:21.699Z,96814.38
2023-07-18T05:48:53.563Z,96810.00
2023-07-18T05:49:25.599Z,96811.59
2023-07-18T05:49:57.724Z,96802.97
2023-07-18T05:50:29.740Z,96815.97
2023-07-18T05:51:01.946Z,96810.66
2023-07-18T05:51:33.878Z,96810.41
2023-07-18T05:52:06.092Z,96808.09
2023-07-18T05:52:39.595Z,96812.47
2023-07-18T05:53:11.676Z,96814.44
2023-07-18T05:53:43.527Z,96814.47
2023-07-18T05:54:15.382Z,96813.44
2023-07-18T05:54:47.737Z,96810.16
2023-07-18T05:55:19.742Z,96812.50
2023-07-18T05:55:53.166Z,96820.94
2023-07-18T05:56:25.095Z,96813.66
2023-07-18T05:57:01.176Z,96809.00
2023-07-18T05:57:33.560Z,96815.50
2023-07-18T05:58:05.424Z,96804.41
2023-07-18T05:58:37.363Z,96813.28
2023-07-18T05:59:09.546Z,96804.50
2023-07-18T05:59:41.598Z,96807.25
2023-07-18T06:00:15.056Z,96805.47
2023-07-18T06:00:47.450Z,96812.47
2023-07-18T06:01:19.642Z,96799.63
2023-07-18T06:01:52.677Z,96800.50
2023-07-18T06:02:24.605Z,96806.66
2023-07-18T06:02:58.927Z,96798.88
2023-07-18T06:03:31.076Z,96797.22
2023-07-18T06:04:03.232Z,96801.72
2023-07-18T06:04:37.662Z,96800.16
2023-07-18T06:05:10.925Z,96800.06
2023-07-18T06:05:42.741Z,96798.78
2023-07-18T06:06:14.718Z,96793.66
2023-07-18T06:06:46.975Z,96792.31
2023-07-18T06:07:19.746Z,96795.44
2023-07-18T06:07:52.551Z,96795.56
2023-07-18T06:08:24.435Z,96794.78
2023-07-18T06:08:56.868Z,96793.03
2023-07-18T06:09:28.752Z,96783.19
2023-07-18T06:10:00.814Z,96795.31
2023-07-18T06:10:32.651Z,96783.75
2023-07-18T06:11:04.929Z,96791.38
2023-07-18T06:11:38.636Z,96787.78
2023-07-18T06:12:10.876Z,96796.91
2023-07-18T06:12:45.851Z,96796.13
2023-07-18T06:13:17.947Z,96796.63
2023-07-18T06:13:50.696Z,96793.66
2023-07-18T06:14:22.586Z,96791.16
2023-07-18T06:14:56.170Z,96788.81
2023-07-18T06:15:28.061Z,96790.69
2023-07-18T06:16:00.058Z,96788.41
2023-07-18T06:16:33.691Z,96789.31
2023-07-18T06:17:06.152Z,96782.63
2023-07-18T06:17:38.291Z,96781.13
2023-07-18T06:18:10.625Z,96780.38
2023-07-18T06:18:42.854Z,96779.88
2023-07-18T06:19:16.457Z,96787.78
2023-07-18T06:19:48.300Z,96786.19
2023-07-18T06:20:21.210Z,96785.66
2023-07-18T06:20:53.707Z,96779.34
2023-07-18T06:21:27.578Z,96781.06
2023-07-18T06:22:00.436Z,96781.06
2023-07-18T06:22:32.269Z,96778.97
2023-07-18T06:23:04.105Z,96777.88
2023-07-18T06:23:36.049Z,96775.59
2023-07-18T06:24:18.146Z,96775.28
2023-07-18T06:24:50.986Z,96772.19
2023-07-18T06:25:22.916Z,96774.41
2023-07-18T06:25:54.884Z,96775.88